AQQ10 IFIS: Internet Flight Information System
logo dgac
Viernes 07 de Mayo del 2021

Metar

Buscar por aerodromo o helipuerto
Ingrese nombre de aeródromo, localidad o designador OACI:


METAR del 07-05-2021 a las 07:00 UTC
Para mayor información visite www.meteochile.cl
METAR SCIP 070700Z VRB02KT 9999 FEW015 BKN025 OVC040 20/19 Q1021 NOSIG
Viento: dirección variable, velocidad 2 nudos
Visibilidad: 10 km o más
Nubes: Escasa nubosidad a 1500 pies sobre el nivel del aeródromo
Nubes: Nublado a 2500 pies sobre el nivel del aeródromo
Nubes: Cubierto a 4000 pies sobre el nivel del aeródromo
Temperatura: 20 °C
Rocío: 19 °C
Humedad_relativa: 94%
Presión: 1021 hPa
No se esperan cambios significativos en las próximas 2 horas
METAR del 07-05-2021 a las 07:00 UTC
Para mayor información visite www.meteochile.cl
METAR SCFA 070700Z 16003KT 9999 OVC023 17/12 Q1017 NOSIG
Viento: dirección 160 grados, velocidad 3 nudos
Visibilidad: 10 km o más
Nubes: Cubierto a 2300 pies sobre el nivel del aeródromo
Temperatura: 17 °C
Rocío: 12 °C
Humedad_relativa: 72%
Presión: 1017 hPa
No se esperan cambios significativos en las próximas 2 horas
METAR del 07-05-2021 a las 07:00 UTC
Para mayor información visite www.meteochile.cl
METAR SCDA 070700Z 23004KT 9999 OVC029 18/12 Q1017
Viento: dirección 230 grados, velocidad 4 nudos
Visibilidad: 10 km o más
Nubes: Cubierto a 2900 pies sobre el nivel del aeródromo
Temperatura: 18 °C
Rocío: 12 °C
Humedad_relativa: 68%
Presión: 1017 hPa
METAR del 07-05-2021 a las 07:00 UTC
Para mayor información visite www.meteochile.cl
METAR SCPQ 070700Z AUTO 18006KT 9000 NCD 01/01 Q1014
Nan: AUTO
Viento: dirección 180 grados, velocidad 6 nudos
Visibilidad: 9000 metros
Nan: NCD
Temperatura: 1 °C
Rocío: 1 °C
Humedad_relativa: 100%
Presión: 1014 hPa
SPECI del 07-05-2021 a las 06:51 UTC
Para mayor información visite www.meteochile.cl
SPECI SCCY 070651Z AUTO 00000KT 8000 VV003 M03/M03 Q1018
Nan: AUTO
Visibilidad: 8000 metros
Visib_vertical: Cielo oscurecido, : 300 pies de visibilidad vertical
Temperatura: -3 °C
Rocío: -3 °C
Humedad_relativa: 100%
Presión: 1018 hPa
SPECI del 07-05-2021 a las 06:49 UTC
Para mayor información visite www.meteochile.cl
SPECI SCSN 070649Z AUTO 35003KT 9999 OVC014 15/15 Q1012
Nan: AUTO
Viento: dirección 350 grados, velocidad 3 nudos
Visibilidad: 10 km o más
Nubes: Cubierto a 1400 pies sobre el nivel del aeródromo
Temperatura: 15 °C
Rocío: 15 °C
Humedad_relativa: 100%
Presión: 1012 hPa
SPECI del 07-05-2021 a las 06:39 UTC
Para mayor información visite www.meteochile.cl
SPECI SCCY 070639Z AUTO 00000KT 0650 FZFG FEW002 BKN004 M03/M03 Q1018
Nan: AUTO
Visibilidad: 650 metros
Helada Niebla
Nubes: Escasa nubosidad a 200 pies sobre el nivel del aeródromo
Nubes: Nublado a 400 pies sobre el nivel del aeródromo
Temperatura: -3 °C
Rocío: -3 °C
Humedad_relativa: 100%
Presión: 1018 hPa
SPECI del 07-05-2021 a las 06:38 UTC
Para mayor información visite www.meteochile.cl
SPECI SCCY 070638Z AUTO 00000KT 1100 BR FEW002 BKN004 M03/M03 Q1018
Nan: AUTO
Visibilidad: 1100 metros
Neblina
Nubes: Escasa nubosidad a 200 pies sobre el nivel del aeródromo
Nubes: Nublado a 400 pies sobre el nivel del aeródromo
Temperatura: -3 °C
Rocío: -3 °C
Humedad_relativa: 100%
Presión: 1018 hPa
SPECI del 07-05-2021 a las 06:29 UTC
Para mayor información visite www.meteochile.cl
SPECI SCSN 070629Z AUTO 34005KT 310V010 9999 FEW011 OVC015 15/15 Q1012
Nan: AUTO
Viento: dirección 340 grados, velocidad 5 nudos
Viento con dirección variable entre 310 y 010 grados
Visibilidad: 10 km o más
Nubes: Escasa nubosidad a 1100 pies sobre el nivel del aeródromo
Nubes: Cubierto a 1500 pies sobre el nivel del aeródromo
Temperatura: 15 °C
Rocío: 15 °C
Humedad_relativa: 100%
Presión: 1012 hPa
SPECI del 07-05-2021 a las 06:25 UTC
Para mayor información visite www.meteochile.cl
SPECI SCFT 070625Z AUTO 00000KT 0550 FG VV001 M00/M00 Q1018
Nan: AUTO
Visibilidad: 550 metros
Niebla
Visib_vertical: Cielo oscurecido, : 100 pies de visibilidad vertical
Temperatura: 0 °C
Rocío: -0 °C
Humedad_relativa: 100%
Presión: 1018 hPa